Weather at Barstool Ranch Airport

Public forecast

Using degrees Fahrenheit for public forecast. Weather courtesy of forecast.io.

Closest aviation weather report (METAR) to Barstool Ranch Airport

Closest report is Granbury Regional Airport, 2.2 nm (4.0 km) SW. Retrieved 2020/10/27 11:35 UTC (0 seconds ago):

KGDJ 271135Z AUTO 33007KT 3SM RA OVC005 03/02 A3016 RMK AO2 T00300021

Closest aviation forecast (TAF) to Barstool Ranch Airport

Forecast is more than 12 hours old.

Closest forecast is NAS Fort Worth JRB/Carswell Field, 25.1 nm (46.4 km) NE. Retrieved 2014/12/04 15:30 UTC (6 years ago):

TAF KNFW 041500Z 0415/0515 16009KT 9999 8000 BR BKN015 OVC060 QNH3004INS TEMPO 0415/0420 3200 -DZ BR BKN009 OVC020 FM050000 16009KT 9999 BKN010 OVC040 QNH3010INS FM051200 17012KT 9999 BKN040 OVC100 QNH3012INS T24/0423Z T13/0512Z FN20046